sensor_id;sensor_type;location;lat;lon;timestamp;P1;durP1;ratioP1;P2;durP2;ratioP2
67272;SDS011;54190;49.770;9.250;2023-08-08T00:02:21;4.67;;;2.70;;
67272;SDS011;54190;49.770;9.250;2023-08-08T00:04:48;3.70;;;2.50;;
67272;SDS011;54190;49.770;9.250;2023-08-08T00:07:15;3.93;;;2.37;;
67272;SDS011;54190;49.770;9.250;2023-08-08T00:09:41;4.43;;;2.83;;
67272;SDS011;54190;49.770;9.250;2023-08-08T00:12:06;4.13;;;3.00;;
67272;SDS011;54190;49.770;9.250;2023-08-08T00:14:32;4.60;;;2.70;;
67272;SDS011;54190;49.770;9.250;2023-08-08T00:16:58;4.97;;;3.00;;
67272;SDS011;54190;49.770;9.250;2023-08-08T00:19:23;4.30;;;2.90;;
67272;SDS011;54190;49.770;9.250;2023-08-08T00:21:49;6.33;;;2.50;;
67272;SDS011;54190;49.770;9.250;2023-08-08T00:24:15;5.20;;;3.20;;
67272;SDS011;54190;49.770;9.250;2023-08-08T00:26:40;7.27;;;2.80;;
67272;SDS011;54190;49.770;9.250;2023-08-08T00:29:06;4.00;;;2.67;;
67272;SDS011;54190;49.770;9.250;2023-08-08T00:31:32;6.90;;;2.80;;
67272;SDS011;54190;49.770;9.250;2023-08-08T00:33:58;5.00;;;3.07;;
67272;SDS011;54190;49.770;9.250;2023-08-08T00:36:23;4.80;;;2.87;;
67272;SDS011;54190;49.770;9.250;2023-08-08T00:38:49;12.33;;;2.97;;
67272;SDS011;54190;49.770;9.250;2023-08-08T00:41:15;11.40;;;2.80;;
67272;SDS011;54190;49.770;9.250;2023-08-08T00:43:41;6.93;;;2.60;;
67272;SDS011;54190;49.770;9.250;2023-08-08T00:46:09;10.30;;;2.57;;
67272;SDS011;54190;49.770;9.250;2023-08-08T00:48:35;5.37;;;2.70;;
67272;SDS011;54190;49.770;9.250;2023-08-08T00:51:01;4.03;;;2.50;;
67272;SDS011;54190;49.770;9.250;2023-08-08T00:53:27;3.80;;;2.70;;
67272;SDS011;54190;49.770;9.250;2023-08-08T00:55:58;6.47;;;2.87;;
67272;SDS011;54190;49.770;9.250;2023-08-08T00:58:24;6.47;;;2.83;;
67272;SDS011;54190;49.770;9.250;2023-08-08T01:00:50;4.20;;;2.50;;
67272;SDS011;54190;49.770;9.250;2023-08-08T01:03:19;4.70;;;3.07;;
67272;SDS011;54190;49.770;9.250;2023-08-08T01:05:51;7.73;;;2.87;;
67272;SDS011;54190;49.770;9.250;2023-08-08T01:08:25;5.60;;;2.90;;
67272;SDS011;54190;49.770;9.250;2023-08-08T01:10:58;4.70;;;3.10;;
67272;SDS011;54190;49.770;9.250;2023-08-08T01:13:25;4.37;;;2.57;;
67272;SDS011;54190;49.770;9.250;2023-08-08T01:15:56;5.27;;;2.83;;
67272;SDS011;54190;49.770;9.250;2023-08-08T01:18:23;5.33;;;2.50;;
67272;SDS011;54190;49.770;9.250;2023-08-08T01:20:50;3.90;;;2.37;;
67272;SDS011;54190;49.770;9.250;2023-08-08T01:26:04;3.53;;;2.57;;
67272;SDS011;54190;49.770;9.250;2023-08-08T01:28:30;5.67;;;2.80;;
67272;SDS011;54190;49.770;9.250;2023-08-08T01:30:56;5.20;;;3.27;;
67272;SDS011;54190;49.770;9.250;2023-08-08T01:33:22;4.27;;;2.47;;
67272;SDS011;54190;49.770;9.250;2023-08-08T01:35:48;4.33;;;2.40;;
67272;SDS011;54190;49.770;9.250;2023-08-08T01:38:31;6.60;;;2.60;;
67272;SDS011;54190;49.770;9.250;2023-08-08T01:41:01;5.00;;;2.83;;
67272;SDS011;54190;49.770;9.250;2023-08-08T01:43:28;4.50;;;2.60;;
67272;SDS011;54190;49.770;9.250;2023-08-08T01:45:55;4.80;;;2.57;;
67272;SDS011;54190;49.770;9.250;2023-08-08T01:48:21;5.33;;;2.90;;
67272;SDS011;54190;49.770;9.250;2023-08-08T01:50:48;4.97;;;2.70;;
67272;SDS011;54190;49.770;9.250;2023-08-08T01:53:13;4.90;;;3.20;;
67272;SDS011;54190;49.770;9.250;2023-08-08T01:55:42;3.50;;;2.50;;
67272;SDS011;54190;49.770;9.250;2023-08-08T01:58:08;4.50;;;2.47;;
67272;SDS011;54190;49.770;9.250;2023-08-08T02:00:34;6.97;;;2.77;;
67272;SDS011;54190;49.770;9.250;2023-08-08T02:02:59;5.40;;;3.13;;
67272;SDS011;54190;49.770;9.250;2023-08-08T02:05:25;7.10;;;2.67;;
67272;SDS011;54190;49.770;9.250;2023-08-08T02:07:51;5.23;;;2.67;;
67272;SDS011;54190;49.770;9.250;2023-08-08T02:10:17;4.70;;;2.63;;
67272;SDS011;54190;49.770;9.250;2023-08-08T02:12:42;6.47;;;2.50;;
67272;SDS011;54190;49.770;9.250;2023-08-08T02:15:09;4.40;;;2.80;;
67272;SDS011;54190;49.770;9.250;2023-08-08T02:17:35;3.73;;;2.47;;
67272;SDS011;54190;49.770;9.250;2023-08-08T02:20:02;6.80;;;3.10;;
67272;SDS011;54190;49.770;9.250;2023-08-08T02:22:29;5.00;;;2.97;;
67272;SDS011;54190;49.770;9.250;2023-08-08T02:24:55;4.33;;;2.57;;
67272;SDS011;54190;49.770;9.250;2023-08-08T02:27:20;4.77;;;2.43;;
67272;SDS011;54190;49.770;9.250;2023-08-08T02:29:46;3.67;;;2.33;;
67272;SDS011;54190;49.770;9.250;2023-08-08T02:32:12;5.83;;;2.77;;
67272;SDS011;54190;49.770;9.250;2023-08-08T02:34:38;4.50;;;2.30;;
67272;SDS011;54190;49.770;9.250;2023-08-08T02:37:04;7.30;;;2.40;;
67272;SDS011;54190;49.770;9.250;2023-08-08T02:39:29;3.70;;;2.23;;
67272;SDS011;54190;49.770;9.250;2023-08-08T02:41:55;3.70;;;2.47;;
67272;SDS011;54190;49.770;9.250;2023-08-08T02:44:22;3.20;;;2.30;;
67272;SDS011;54190;49.770;9.250;2023-08-08T02:46:48;3.70;;;2.40;;
67272;SDS011;54190;49.770;9.250;2023-08-08T02:49:14;4.47;;;2.60;;
67272;SDS011;54190;49.770;9.250;2023-08-08T02:51:39;4.20;;;2.73;;
67272;SDS011;54190;49.770;9.250;2023-08-08T02:54:05;4.10;;;2.40;;
67272;SDS011;54190;49.770;9.250;2023-08-08T02:56:33;3.60;;;2.40;;
67272;SDS011;54190;49.770;9.250;2023-08-08T02:58:58;3.33;;;2.27;;
67272;SDS011;54190;49.770;9.250;2023-08-08T03:01:24;3.77;;;2.60;;
67272;SDS011;54190;49.770;9.250;2023-08-08T03:03:50;3.43;;;2.30;;
67272;SDS011;54190;49.770;9.250;2023-08-08T03:06:19;4.90;;;2.63;;
67272;SDS011;54190;49.770;9.250;2023-08-08T03:08:45;4.03;;;2.37;;
67272;SDS011;54190;49.770;9.250;2023-08-08T03:11:11;9.83;;;2.90;;
67272;SDS011;54190;49.770;9.250;2023-08-08T03:13:36;5.27;;;2.50;;
67272;SDS011;54190;49.770;9.250;2023-08-08T03:16:03;7.60;;;2.57;;
67272;SDS011;54190;49.770;9.250;2023-08-08T03:18:28;6.20;;;3.13;;
67272;SDS011;54190;49.770;9.250;2023-08-08T03:20:54;3.83;;;2.50;;
67272;SDS011;54190;49.770;9.250;2023-08-08T03:23:21;3.63;;;2.60;;
67272;SDS011;54190;49.770;9.250;2023-08-08T03:25:49;6.00;;;2.20;;
67272;SDS011;54190;49.770;9.250;2023-08-08T03:28:15;7.70;;;2.50;;
67272;SDS011;54190;49.770;9.250;2023-08-08T03:30:41;4.70;;;2.40;;
67272;SDS011;54190;49.770;9.250;2023-08-08T03:33:08;3.73;;;2.53;;
67272;SDS011;54190;49.770;9.250;2023-08-08T03:35:34;6.50;;;2.60;;
67272;SDS011;54190;49.770;9.250;2023-08-08T03:38:00;5.07;;;2.60;;
67272;SDS011;54190;49.770;9.250;2023-08-08T03:40:26;9.23;;;2.70;;
67272;SDS011;54190;49.770;9.250;2023-08-08T03:42:52;9.03;;;2.60;;
67272;SDS011;54190;49.770;9.250;2023-08-08T03:45:17;4.63;;;2.90;;
67272;SDS011;54190;49.770;9.250;2023-08-08T03:47:44;3.60;;;2.50;;
67272;SDS011;54190;49.770;9.250;2023-08-08T03:50:10;4.10;;;1.90;;
67272;SDS011;54190;49.770;9.250;2023-08-08T03:52:36;7.20;;;2.77;;
67272;SDS011;54190;49.770;9.250;2023-08-08T03:55:03;4.00;;;2.40;;
67272;SDS011;54190;49.770;9.250;2023-08-08T03:57:30;4.70;;;2.20;;
67272;SDS011;54190;49.770;9.250;2023-08-08T03:59:55;5.97;;;2.67;;
67272;SDS011;54190;49.770;9.250;2023-08-08T04:02:21;7.10;;;2.30;;
67272;SDS011;54190;49.770;9.250;2023-08-08T04:04:47;4.60;;;2.40;;
67272;SDS011;54190;49.770;9.250;2023-08-08T04:07:13;4.23;;;2.33;;
67272;SDS011;54190;49.770;9.250;2023-08-08T04:09:39;4.53;;;2.20;;
67272;SDS011;54190;49.770;9.250;2023-08-08T04:12:04;5.40;;;2.83;;
67272;SDS011;54190;49.770;9.250;2023-08-08T04:14:31;7.33;;;2.70;;
67272;SDS011;54190;49.770;9.250;2023-08-08T04:16:57;5.70;;;2.57;;
67272;SDS011;54190;49.770;9.250;2023-08-08T04:19:23;9.80;;;2.83;;
67272;SDS011;54190;49.770;9.250;2023-08-08T04:21:49;5.13;;;2.60;;
67272;SDS011;54190;49.770;9.250;2023-08-08T04:24:15;8.57;;;3.17;;
67272;SDS011;54190;49.770;9.250;2023-08-08T04:26:40;6.00;;;2.33;;
67272;SDS011;54190;49.770;9.250;2023-08-08T04:29:06;4.50;;;2.70;;
67272;SDS011;54190;49.770;9.250;2023-08-08T04:31:32;6.10;;;2.80;;
67272;SDS011;54190;49.770;9.250;2023-08-08T04:33:57;4.70;;;2.47;;
67272;SDS011;54190;49.770;9.250;2023-08-08T04:36:29;6.10;;;3.00;;
67272;SDS011;54190;49.770;9.250;2023-08-08T04:38:55;4.20;;;2.43;;
67272;SDS011;54190;49.770;9.250;2023-08-08T04:41:21;7.83;;;2.67;;
67272;SDS011;54190;49.770;9.250;2023-08-08T04:43:46;5.70;;;2.70;;
67272;SDS011;54190;49.770;9.250;2023-08-08T04:46:12;6.90;;;2.30;;
67272;SDS011;54190;49.770;9.250;2023-08-08T04:48:38;3.83;;;2.43;;
67272;SDS011;54190;49.770;9.250;2023-08-08T04:51:04;3.40;;;2.43;;
67272;SDS011;54190;49.770;9.250;2023-08-08T04:53:30;9.17;;;3.40;;
67272;SDS011;54190;49.770;9.250;2023-08-08T04:55:56;5.17;;;3.50;;
67272;SDS011;54190;49.770;9.250;2023-08-08T04:58:22;5.07;;;2.47;;
67272;SDS011;54190;49.770;9.250;2023-08-08T05:00:47;4.60;;;2.50;;
67272;SDS011;54190;49.770;9.250;2023-08-08T05:03:13;7.53;;;2.70;;
67272;SDS011;54190;49.770;9.250;2023-08-08T05:05:39;16.00;;;2.93;;
67272;SDS011;54190;49.770;9.250;2023-08-08T05:08:04;4.80;;;2.73;;
67272;SDS011;54190;49.770;9.250;2023-08-08T05:10:30;5.33;;;3.00;;
67272;SDS011;54190;49.770;9.250;2023-08-08T05:12:56;6.63;;;2.80;;
67272;SDS011;54190;49.770;9.250;2023-08-08T05:15:22;7.00;;;2.47;;
67272;SDS011;54190;49.770;9.250;2023-08-08T05:17:48;6.60;;;2.67;;
67272;SDS011;54190;49.770;9.250;2023-08-08T05:20:13;6.23;;;2.67;;
67272;SDS011;54190;49.770;9.250;2023-08-08T05:22:39;5.50;;;2.40;;
67272;SDS011;54190;49.770;9.250;2023-08-08T05:25:05;5.50;;;2.53;;
67272;SDS011;54190;49.770;9.250;2023-08-08T05:27:31;5.80;;;2.30;;
67272;SDS011;54190;49.770;9.250;2023-08-08T05:29:57;5.50;;;2.40;;
67272;SDS011;54190;49.770;9.250;2023-08-08T05:32:22;4.53;;;2.40;;
67272;SDS011;54190;49.770;9.250;2023-08-08T05:34:49;3.90;;;2.43;;
67272;SDS011;54190;49.770;9.250;2023-08-08T05:37:15;4.60;;;2.60;;
67272;SDS011;54190;49.770;9.250;2023-08-08T05:39:41;5.27;;;2.47;;
67272;SDS011;54190;49.770;9.250;2023-08-08T05:42:07;5.97;;;3.03;;
67272;SDS011;54190;49.770;9.250;2023-08-08T05:44:32;3.57;;;2.57;;
67272;SDS011;54190;49.770;9.250;2023-08-08T05:46:58;4.20;;;2.20;;
67272;SDS011;54190;49.770;9.250;2023-08-08T05:49:24;5.73;;;2.53;;
67272;SDS011;54190;49.770;9.250;2023-08-08T05:51:49;4.07;;;2.10;;
67272;SDS011;54190;49.770;9.250;2023-08-08T05:54:15;7.53;;;2.77;;
67272;SDS011;54190;49.770;9.250;2023-08-08T05:56:41;6.03;;;2.47;;
67272;SDS011;54190;49.770;9.250;2023-08-08T05:59:06;3.60;;;2.47;;
67272;SDS011;54190;49.770;9.250;2023-08-08T06:01:32;7.63;;;2.70;;
67272;SDS011;54190;49.770;9.250;2023-08-08T06:03:59;6.20;;;2.80;;
67272;SDS011;54190;49.770;9.250;2023-08-08T06:06:27;4.73;;;2.27;;
67272;SDS011;54190;49.770;9.250;2023-08-08T06:08:53;4.43;;;2.70;;
67272;SDS011;54190;49.770;9.250;2023-08-08T06:11:18;5.93;;;2.43;;
67272;SDS011;54190;49.770;9.250;2023-08-08T06:13:45;5.67;;;2.50;;
67272;SDS011;54190;49.770;9.250;2023-08-08T06:16:10;4.07;;;2.20;;
67272;SDS011;54190;49.770;9.250;2023-08-08T06:18:36;4.83;;;2.60;;
67272;SDS011;54190;49.770;9.250;2023-08-08T06:21:02;6.33;;;2.40;;
67272;SDS011;54190;49.770;9.250;2023-08-08T06:23:27;5.53;;;2.50;;
67272;SDS011;54190;49.770;9.250;2023-08-08T06:25:53;3.70;;;2.50;;
67272;SDS011;54190;49.770;9.250;2023-08-08T06:28:19;5.43;;;2.60;;
67272;SDS011;54190;49.770;9.250;2023-08-08T06:30:44;4.47;;;2.57;;
67272;SDS011;54190;49.770;9.250;2023-08-08T06:33:10;4.60;;;2.17;;
67272;SDS011;54190;49.770;9.250;2023-08-08T06:35:36;5.10;;;2.10;;
67272;SDS011;54190;49.770;9.250;2023-08-08T06:38:02;3.93;;;2.27;;
67272;SDS011;54190;49.770;9.250;2023-08-08T06:40:28;8.00;;;2.67;;
67272;SDS011;54190;49.770;9.250;2023-08-08T06:42:53;3.60;;;2.50;;
67272;SDS011;54190;49.770;9.250;2023-08-08T06:45:20;4.90;;;2.17;;
67272;SDS011;54190;49.770;9.250;2023-08-08T06:47:46;3.67;;;2.20;;
67272;SDS011;54190;49.770;9.250;2023-08-08T06:50:12;5.40;;;2.20;;
67272;SDS011;54190;49.770;9.250;2023-08-08T06:52:38;3.73;;;2.10;;
67272;SDS011;54190;49.770;9.250;2023-08-08T06:55:04;5.57;;;2.23;;
67272;SDS011;54190;49.770;9.250;2023-08-08T06:57:32;4.50;;;2.40;;
67272;SDS011;54190;49.770;9.250;2023-08-08T06:59:58;3.50;;;2.10;;
67272;SDS011;54190;49.770;9.250;2023-08-08T07:02:24;5.40;;;2.43;;
67272;SDS011;54190;49.770;9.250;2023-08-08T07:04:50;3.50;;;2.23;;
67272;SDS011;54190;49.770;9.250;2023-08-08T07:07:16;4.70;;;2.30;;
67272;SDS011;54190;49.770;9.250;2023-08-08T07:09:42;5.33;;;2.30;;
67272;SDS011;54190;49.770;9.250;2023-08-08T07:12:08;4.33;;;1.93;;
67272;SDS011;54190;49.770;9.250;2023-08-08T07:14:34;5.50;;;2.30;;
67272;SDS011;54190;49.770;9.250;2023-08-08T07:17:00;5.17;;;1.90;;
67272;SDS011;54190;49.770;9.250;2023-08-08T07:19:27;4.63;;;2.47;;
67272;SDS011;54190;49.770;9.250;2023-08-08T07:21:53;3.67;;;2.23;;
67272;SDS011;54190;49.770;9.250;2023-08-08T07:24:19;6.40;;;2.07;;
67272;SDS011;54190;49.770;9.250;2023-08-08T07:26:45;5.00;;;2.10;;
67272;SDS011;54190;49.770;9.250;2023-08-08T07:29:11;5.93;;;2.20;;
67272;SDS011;54190;49.770;9.250;2023-08-08T07:31:36;5.90;;;2.13;;
67272;SDS011;54190;49.770;9.250;2023-08-08T07:34:02;4.73;;;2.37;;
67272;SDS011;54190;49.770;9.250;2023-08-08T07:36:28;5.00;;;2.07;;
67272;SDS011;54190;49.770;9.250;2023-08-08T07:38:54;4.97;;;2.00;;
67272;SDS011;54190;49.770;9.250;2023-08-08T07:41:24;5.27;;;2.07;;
67272;SDS011;54190;49.770;9.250;2023-08-08T07:43:51;3.67;;;2.30;;
67272;SDS011;54190;49.770;9.250;2023-08-08T07:46:17;5.60;;;2.20;;
67272;SDS011;54190;49.770;9.250;2023-08-08T07:48:43;7.13;;;1.90;;
67272;SDS011;54190;49.770;9.250;2023-08-08T07:51:09;3.80;;;2.20;;
67272;SDS011;54190;49.770;9.250;2023-08-08T07:53:34;5.83;;;1.90;;
67272;SDS011;54190;49.770;9.250;2023-08-08T07:56:00;2.60;;;1.70;;
67272;SDS011;54190;49.770;9.250;2023-08-08T07:58:26;3.43;;;2.10;;
67272;SDS011;54190;49.770;9.250;2023-08-08T08:00:52;3.80;;;1.70;;
67272;SDS011;54190;49.770;9.250;2023-08-08T08:03:21;5.43;;;2.10;;
67272;SDS011;54190;49.770;9.250;2023-08-08T08:05:47;6.67;;;2.20;;
67272;SDS011;54190;49.770;9.250;2023-08-08T08:08:13;6.53;;;1.80;;
67272;SDS011;54190;49.770;9.250;2023-08-08T08:10:39;3.00;;;1.60;;
67272;SDS011;54190;49.770;9.250;2023-08-08T08:13:04;2.80;;;1.70;;
67272;SDS011;54190;49.770;9.250;2023-08-08T08:15:30;3.30;;;1.80;;
67272;SDS011;54190;49.770;9.250;2023-08-08T08:17:56;4.77;;;1.83;;
67272;SDS011;54190;49.770;9.250;2023-08-08T08:20:21;3.57;;;1.70;;
67272;SDS011;54190;49.770;9.250;2023-08-08T08:22:47;2.83;;;1.63;;
67272;SDS011;54190;49.770;9.250;2023-08-08T08:25:13;4.03;;;1.53;;
67272;SDS011;54190;49.770;9.250;2023-08-08T08:27:40;2.47;;;1.50;;
67272;SDS011;54190;49.770;9.250;2023-08-08T08:30:06;3.70;;;1.60;;
67272;SDS011;54190;49.770;9.250;2023-08-08T08:32:34;4.10;;;1.60;;
67272;SDS011;54190;49.770;9.250;2023-08-08T08:35:01;3.77;;;1.60;;
67272;SDS011;54190;49.770;9.250;2023-08-08T08:37:29;3.43;;;1.90;;
67272;SDS011;54190;49.770;9.250;2023-08-08T08:39:55;3.40;;;1.90;;
67272;SDS011;54190;49.770;9.250;2023-08-08T08:42:21;2.97;;;1.63;;
67272;SDS011;54190;49.770;9.250;2023-08-08T08:44:47;3.13;;;1.60;;
67272;SDS011;54190;49.770;9.250;2023-08-08T08:47:15;3.10;;;1.70;;
67272;SDS011;54190;49.770;9.250;2023-08-08T08:49:44;4.60;;;1.80;;
67272;SDS011;54190;49.770;9.250;2023-08-08T08:52:11;4.90;;;1.73;;
67272;SDS011;54190;49.770;9.250;2023-08-08T08:54:37;5.17;;;2.03;;
67272;SDS011;54190;49.770;9.250;2023-08-08T08:57:03;3.53;;;1.70;;
67272;SDS011;54190;49.770;9.250;2023-08-08T08:59:29;3.70;;;1.70;;
67272;SDS011;54190;49.770;9.250;2023-08-08T09:01:56;4.50;;;1.50;;
67272;SDS011;54190;49.770;9.250;2023-08-08T09:04:23;3.97;;;1.70;;
67272;SDS011;54190;49.770;9.250;2023-08-08T09:06:49;3.10;;;1.70;;
67272;SDS011;54190;49.770;9.250;2023-08-08T09:09:17;3.87;;;1.80;;
67272;SDS011;54190;49.770;9.250;2023-08-08T09:11:47;6.10;;;2.10;;
67272;SDS011;54190;49.770;9.250;2023-08-08T09:14:15;4.60;;;1.80;;
67272;SDS011;54190;49.770;9.250;2023-08-08T09:16:45;4.10;;;2.00;;
67272;SDS011;54190;49.770;9.250;2023-08-08T09:19:12;3.23;;;1.77;;
67272;SDS011;54190;49.770;9.250;2023-08-08T09:21:38;4.20;;;2.10;;
67272;SDS011;54190;49.770;9.250;2023-08-08T09:24:04;3.20;;;1.80;;
67272;SDS011;54190;49.770;9.250;2023-08-08T09:26:30;3.87;;;2.10;;
67272;SDS011;54190;49.770;9.250;2023-08-08T09:28:56;7.07;;;1.70;;
67272;SDS011;54190;49.770;9.250;2023-08-08T09:31:24;3.67;;;1.87;;
67272;SDS011;54190;49.770;9.250;2023-08-08T09:33:51;3.40;;;1.90;;
67272;SDS011;54190;49.770;9.250;2023-08-08T09:36:18;3.90;;;2.23;;
67272;SDS011;54190;49.770;9.250;2023-08-08T09:38:44;5.17;;;2.17;;
67272;SDS011;54190;49.770;9.250;2023-08-08T09:41:11;5.27;;;2.40;;
67272;SDS011;54190;49.770;9.250;2023-08-08T09:43:37;4.83;;;2.13;;
67272;SDS011;54190;49.770;9.250;2023-08-08T09:46:03;5.53;;;2.27;;
67272;SDS011;54190;49.770;9.250;2023-08-08T09:48:31;3.87;;;1.90;;
67272;SDS011;54190;49.770;9.250;2023-08-08T09:51:01;4.70;;;1.90;;
67272;SDS011;54190;49.770;9.250;2023-08-08T09:53:27;3.03;;;1.73;;
67272;SDS011;54190;49.770;9.250;2023-08-08T09:55:54;3.73;;;1.83;;
67272;SDS011;54190;49.770;9.250;2023-08-08T09:58:20;4.00;;;2.03;;
67272;SDS011;54190;49.770;9.250;2023-08-08T10:00:49;3.33;;;2.00;;
67272;SDS011;54190;49.770;9.250;2023-08-08T10:03:15;2.57;;;1.50;;
67272;SDS011;54190;49.770;9.250;2023-08-08T10:05:42;4.40;;;2.00;;
67272;SDS011;54190;49.770;9.250;2023-08-08T10:08:08;2.83;;;1.80;;
67272;SDS011;54190;49.770;9.250;2023-08-08T10:10:34;4.07;;;1.67;;
67272;SDS011;54190;49.770;9.250;2023-08-08T10:13:02;4.20;;;1.90;;
67272;SDS011;54190;49.770;9.250;2023-08-08T10:15:27;7.13;;;2.50;;
67272;SDS011;54190;49.770;9.250;2023-08-08T10:17:57;3.30;;;1.60;;
67272;SDS011;54190;49.770;9.250;2023-08-08T10:20:26;2.70;;;1.90;;
67272;SDS011;54190;49.770;9.250;2023-08-08T10:22:52;4.10;;;1.93;;
67272;SDS011;54190;49.770;9.250;2023-08-08T10:25:26;4.20;;;2.27;;
67272;SDS011;54190;49.770;9.250;2023-08-08T10:28:05;4.20;;;1.83;;
67272;SDS011;54190;49.770;9.250;2023-08-08T10:30:43;6.10;;;2.33;;
67272;SDS011;54190;49.770;9.250;2023-08-08T10:33:17;3.23;;;1.93;;
67272;SDS011;54190;49.770;9.250;2023-08-08T10:38:26;4.60;;;1.97;;
67272;SDS011;54190;49.770;9.250;2023-08-08T10:41:04;3.40;;;1.70;;
67272;SDS011;54190;49.770;9.250;2023-08-08T10:43:33;5.10;;;2.10;;
67272;SDS011;54190;49.770;9.250;2023-08-08T10:46:02;3.60;;;1.93;;
67272;SDS011;54190;49.770;9.250;2023-08-08T10:48:29;3.10;;;1.70;;
67272;SDS011;54190;49.770;9.250;2023-08-08T10:50:55;5.33;;;2.30;;
67272;SDS011;54190;49.770;9.250;2023-08-08T10:53:27;4.30;;;1.90;;
67272;SDS011;54190;49.770;9.250;2023-08-08T10:55:57;6.40;;;1.70;;
67272;SDS011;54190;49.770;9.250;2023-08-08T10:58:40;4.10;;;1.90;;
67272;SDS011;54190;49.770;9.250;2023-08-08T11:01:07;6.20;;;1.60;;
67272;SDS011;54190;49.770;9.250;2023-08-08T11:03:37;5.60;;;1.90;;
67272;SDS011;54190;49.770;9.250;2023-08-08T11:06:05;6.33;;;2.23;;
67272;SDS011;54190;49.770;9.250;2023-08-08T11:08:32;6.83;;;2.00;;
67272;SDS011;54190;49.770;9.250;2023-08-08T11:10:58;2.90;;;1.93;;
67272;SDS011;54190;49.770;9.250;2023-08-08T11:13:25;3.63;;;1.70;;
67272;SDS011;54190;49.770;9.250;2023-08-08T11:15:51;4.50;;;1.80;;
67272;SDS011;54190;49.770;9.250;2023-08-08T11:18:17;5.53;;;2.33;;
67272;SDS011;54190;49.770;9.250;2023-08-08T11:20:43;3.40;;;2.00;;
67272;SDS011;54190;49.770;9.250;2023-08-08T11:23:09;3.53;;;2.27;;
67272;SDS011;54190;49.770;9.250;2023-08-08T11:25:39;2.87;;;1.90;;
67272;SDS011;54190;49.770;9.250;2023-08-08T11:28:07;3.80;;;1.90;;
67272;SDS011;54190;49.770;9.250;2023-08-08T11:30:34;4.60;;;2.10;;
67272;SDS011;54190;49.770;9.250;2023-08-08T11:33:02;5.67;;;2.23;;
67272;SDS011;54190;49.770;9.250;2023-08-08T11:35:28;6.20;;;2.30;;
67272;SDS011;54190;49.770;9.250;2023-08-08T11:37:58;4.50;;;2.27;;
67272;SDS011;54190;49.770;9.250;2023-08-08T11:40:25;3.83;;;1.90;;
67272;SDS011;54190;49.770;9.250;2023-08-08T11:42:52;4.20;;;2.10;;
67272;SDS011;54190;49.770;9.250;2023-08-08T11:45:19;4.00;;;1.97;;
67272;SDS011;54190;49.770;9.250;2023-08-08T11:47:48;3.00;;;1.97;;
67272;SDS011;54190;49.770;9.250;2023-08-08T11:50:15;3.40;;;1.70;;
67272;SDS011;54190;49.770;9.250;2023-08-08T11:52:41;4.83;;;2.30;;
67272;SDS011;54190;49.770;9.250;2023-08-08T11:55:08;2.97;;;1.90;;
67272;SDS011;54190;49.770;9.250;2023-08-08T11:57:35;6.13;;;2.30;;
67272;SDS011;54190;49.770;9.250;2023-08-08T12:00:09;6.93;;;2.17;;
67272;SDS011;54190;49.770;9.250;2023-08-08T12:02:42;6.10;;;2.20;;
67272;SDS011;54190;49.770;9.250;2023-08-08T12:05:12;3.07;;;1.93;;
67272;SDS011;54190;49.770;9.250;2023-08-08T12:07:42;4.80;;;2.07;;
67272;SDS011;54190;49.770;9.250;2023-08-08T12:10:15;3.77;;;1.90;;
67272;SDS011;54190;49.770;9.250;2023-08-08T12:12:42;5.10;;;2.17;;
67272;SDS011;54190;49.770;9.250;2023-08-08T12:15:08;3.70;;;1.97;;
67272;SDS011;54190;49.770;9.250;2023-08-08T12:17:35;4.00;;;2.20;;
67272;SDS011;54190;49.770;9.250;2023-08-08T12:20:05;4.57;;;2.50;;
67272;SDS011;54190;49.770;9.250;2023-08-08T12:22:32;3.80;;;2.10;;
67272;SDS011;54190;49.770;9.250;2023-08-08T12:24:59;3.97;;;2.43;;
67272;SDS011;54190;49.770;9.250;2023-08-08T12:27:25;3.83;;;1.80;;
67272;SDS011;54190;49.770;9.250;2023-08-08T12:29:50;4.40;;;2.17;;
67272;SDS011;54190;49.770;9.250;2023-08-08T12:32:19;3.43;;;2.00;;
67272;SDS011;54190;49.770;9.250;2023-08-08T12:34:45;4.47;;;2.00;;
67272;SDS011;54190;49.770;9.250;2023-08-08T12:37:10;3.60;;;2.33;;
67272;SDS011;54190;49.770;9.250;2023-08-08T12:39:36;4.00;;;2.47;;
67272;SDS011;54190;49.770;9.250;2023-08-08T12:42:02;6.67;;;1.83;;
67272;SDS011;54190;49.770;9.250;2023-08-08T12:44:27;3.90;;;2.07;;
67272;SDS011;54190;49.770;9.250;2023-08-08T12:46:53;5.10;;;2.20;;
67272;SDS011;54190;49.770;9.250;2023-08-08T12:49:19;3.87;;;1.93;;
67272;SDS011;54190;49.770;9.250;2023-08-08T12:51:44;3.33;;;2.13;;
67272;SDS011;54190;49.770;9.250;2023-08-08T12:54:10;6.03;;;1.97;;
67272;SDS011;54190;49.770;9.250;2023-08-08T12:56:36;4.60;;;2.23;;
67272;SDS011;54190;49.770;9.250;2023-08-08T12:59:01;3.13;;;1.87;;
67272;SDS011;54190;49.770;9.250;2023-08-08T13:01:28;3.53;;;2.00;;
67272;SDS011;54190;49.770;9.250;2023-08-08T13:03:53;3.27;;;2.10;;
67272;SDS011;54190;49.770;9.250;2023-08-08T13:06:19;3.47;;;2.30;;
67272;SDS011;54190;49.770;9.250;2023-08-08T13:08:45;9.53;;;2.30;;
67272;SDS011;54190;49.770;9.250;2023-08-08T13:11:11;5.03;;;1.93;;
67272;SDS011;54190;49.770;9.250;2023-08-08T13:13:36;6.27;;;2.13;;
67272;SDS011;54190;49.770;9.250;2023-08-08T13:16:02;3.67;;;2.33;;
67272;SDS011;54190;49.770;9.250;2023-08-08T13:18:28;3.10;;;1.90;;
67272;SDS011;54190;49.770;9.250;2023-08-08T13:20:54;3.50;;;1.80;;
67272;SDS011;54190;49.770;9.250;2023-08-08T13:23:20;4.13;;;1.80;;
67272;SDS011;54190;49.770;9.250;2023-08-08T13:25:45;2.87;;;1.70;;
67272;SDS011;54190;49.770;9.250;2023-08-08T13:28:11;2.97;;;1.83;;
67272;SDS011;54190;49.770;9.250;2023-08-08T13:30:37;3.40;;;2.13;;
67272;SDS011;54190;49.770;9.250;2023-08-08T13:33:03;5.67;;;1.73;;
67272;SDS011;54190;49.770;9.250;2023-08-08T13:35:29;2.97;;;1.70;;
67272;SDS011;54190;49.770;9.250;2023-08-08T13:37:55;3.50;;;2.00;;
67272;SDS011;54190;49.770;9.250;2023-08-08T13:40:21;2.87;;;1.90;;
67272;SDS011;54190;49.770;9.250;2023-08-08T13:42:50;4.10;;;2.00;;
67272;SDS011;54190;49.770;9.250;2023-08-08T13:45:19;5.10;;;1.80;;
67272;SDS011;54190;49.770;9.250;2023-08-08T13:47:46;7.23;;;2.00;;
67272;SDS011;54190;49.770;9.250;2023-08-08T13:50:13;3.40;;;2.00;;
67272;SDS011;54190;49.770;9.250;2023-08-08T13:52:39;4.03;;;1.90;;
67272;SDS011;54190;49.770;9.250;2023-08-08T13:55:08;3.70;;;1.80;;
67272;SDS011;54190;49.770;9.250;2023-08-08T13:57:34;3.37;;;1.60;;
67272;SDS011;54190;49.770;9.250;2023-08-08T14:00:01;3.83;;;2.00;;
67272;SDS011;54190;49.770;9.250;2023-08-08T14:02:33;3.77;;;1.90;;
67272;SDS011;54190;49.770;9.250;2023-08-08T14:04:58;4.87;;;2.10;;
67272;SDS011;54190;49.770;9.250;2023-08-08T14:07:24;2.70;;;1.60;;
67272;SDS011;54190;49.770;9.250;2023-08-08T14:09:50;3.83;;;1.93;;
67272;SDS011;54190;49.770;9.250;2023-08-08T14:12:16;3.40;;;1.80;;
67272;SDS011;54190;49.770;9.250;2023-08-08T14:14:42;4.60;;;2.17;;
67272;SDS011;54190;49.770;9.250;2023-08-08T14:17:07;2.40;;;1.70;;
67272;SDS011;54190;49.770;9.250;2023-08-08T14:19:33;3.67;;;1.70;;
67272;SDS011;54190;49.770;9.250;2023-08-08T14:21:59;4.90;;;2.03;;
67272;SDS011;54190;49.770;9.250;2023-08-08T14:24:25;5.33;;;2.23;;
67272;SDS011;54190;49.770;9.250;2023-08-08T14:26:50;3.30;;;1.83;;
67272;SDS011;54190;49.770;9.250;2023-08-08T14:29:16;3.87;;;2.00;;
67272;SDS011;54190;49.770;9.250;2023-08-08T14:31:42;3.50;;;2.10;;
67272;SDS011;54190;49.770;9.250;2023-08-08T14:34:08;3.50;;;1.93;;
67272;SDS011;54190;49.770;9.250;2023-08-08T14:36:34;4.73;;;2.30;;
67272;SDS011;54190;49.770;9.250;2023-08-08T14:39:00;5.00;;;2.10;;
67272;SDS011;54190;49.770;9.250;2023-08-08T14:41:26;4.10;;;2.00;;
67272;SDS011;54190;49.770;9.250;2023-08-08T14:43:51;5.03;;;2.17;;
67272;SDS011;54190;49.770;9.250;2023-08-08T14:46:17;3.57;;;2.10;;
67272;SDS011;54190;49.770;9.250;2023-08-08T14:48:43;5.10;;;2.03;;
67272;SDS011;54190;49.770;9.250;2023-08-08T14:51:08;3.80;;;2.03;;